Terminal Aerodrome Forecast
Issued by NWS

Current Version | Previous Version | Text Only | Print | Product List | Glossary On
Versions: 1 2 3 4 5 6 7 8 9 10 11 12 13 14 15 16 17 18 19 20 21 22 23
000
FTAK31 PAJN 221723
TAFAKT
TAF
PAKT 221723Z 2218/2318 15010KT P6SM -SHRA SCT015 BKN030 OVC050
      WS015/25030KT
     FM222000 15008KT P6SM VCSH SCT025 BKN045
     FM230600 15008KT P6SM SCT025 OVC050 WS020/10025KT
      AMD LTD TO CLD VIS AND WIND 2306/2315=

USA.gov is the U.S. government's official web portal to all federal, state and local government web resources and services.